Time;durP1;ratioP1;P1;durP2;ratioP2;P2;SDS_P1;SDS_P2;PMS_P1;PMS_P2;Temp;Humidity;BMP_temperature;BMP_pressure;BME280_temperature;BME280_humidity;BME280_pressure;Samples;Min_cycle;Max_cycle;Signal;HPM_P1;HPM_P2
2023/08/17 00:00:46;;;;;;;197.87;16.87;;;;;;;;;;740714;186;919022;-63
2023/08/17 00:03:12;;;;;;;198.13;16.87;;;;;;;;;;735571;186;925843;-64
2023/08/17 00:05:38;;;;;;;197.47;16.00;;;;;;;;;;748819;186;920362;-63
2023/08/17 00:08:04;;;;;;;137.67;16.20;;;;;;;;;;740126;186;918644;-63
2023/08/17 00:10:30;;;;;;;67.47;14.67;;;;;;;;;;734999;186;914403;-59
2023/08/17 00:12:56;;;;;;;40.20;12.73;;;;;;;;;;742594;187;817031;-61
2023/08/17 00:15:22;;;;;;;29.23;12.03;;;;;;;;;;739863;186;920688;-59
2023/08/17 00:17:48;;;;;;;15.70;10.50;;;;;;;;;;734816;187;918872;-63
2023/08/17 00:20:14;;;;;;;21.53;10.77;;;;;;;;;;742741;187;919051;-59
2023/08/17 00:22:39;;;;;;;14.57;10.10;;;;;;;;;;736093;186;919699;-65
2023/08/17 00:25:06;;;;;;;12.73;9.90;;;;;;;;;;745511;186;917274;-63
2023/08/17 00:27:33;;;;;;;12.00;10.00;;;;;;;;;;739138;186;917201;-59
2023/08/17 00:29:58;;;;;;;12.77;10.77;;;;;;;;;;741695;188;920837;-59
2023/08/17 00:32:24;;;;;;;11.20;9.73;;;;;;;;;;743087;187;832516;-59
2023/08/17 00:34:50;;;;;;;10.93;9.63;;;;;;;;;;740170;186;919073;-63
2023/08/17 00:37:16;;;;;;;15.90;10.67;;;;;;;;;;745714;186;918311;-59
2023/08/17 00:39:42;;;;;;;14.97;10.53;;;;;;;;;;739104;186;918374;-59
2023/08/17 00:42:08;;;;;;;11.30;10.20;;;;;;;;;;739748;186;918145;-59
2023/08/17 00:44:33;;;;;;;11.77;10.47;;;;;;;;;;744508;186;917565;-65
2023/08/17 00:46:59;;;;;;;13.85;9.50;;;;;;;;;;737692;186;920368;-65
2023/08/17 00:49:25;;;;;;;22.27;11.67;;;;;;;;;;741358;186;921404;-65
2023/08/17 00:51:51;;;;;;;44.87;12.73;;;;;;;;;;739510;186;919366;-63
2023/08/17 00:54:17;;;;;;;15.87;11.60;;;;;;;;;;744979;186;916352;-60
2023/08/17 00:56:42;;;;;;;17.23;13.30;;;;;;;;;;734532;189;918987;-63
2023/08/17 00:59:08;;;;;;;14.63;12.97;;;;;;;;;;738370;186;917345;-62
2023/08/17 01:01:34;;;;;;;12.73;11.43;;;;;;;;;;743565;188;916033;-62
2023/08/17 01:04:00;;;;;;;16.23;11.10;;;;;;;;;;733546;189;917384;-63
2023/08/17 01:06:26;;;;;;;12.63;11.27;;;;;;;;;;740127;186;919146;-59
2023/08/17 01:08:52;;;;;;;14.03;11.23;;;;;;;;;;746369;186;919054;-59
2023/08/17 01:11:22;;;;;;;13.80;12.43;;;;;;;;;;734494;186;917157;-60
2023/08/17 01:13:49;;;;;;;14.00;10.33;;;;;;;;;;736687;186;918619;-63
2023/08/17 01:16:15;;;;;;;17.10;10.87;;;;;;;;;;737739;188;919809;-63
2023/08/17 01:18:41;;;;;;;15.37;12.10;;;;;;;;;;745894;186;818108;-64
2023/08/17 01:21:07;;;;;;;11.60;10.47;;;;;;;;;;741375;188;918201;-62
2023/08/17 01:23:32;;;;;;;12.33;10.13;;;;;;;;;;739117;186;919384;-60
2023/08/17 01:25:58;;;;;;;12.90;10.07;;;;;;;;;;746159;186;881150;-60
2023/08/17 01:28:24;;;;;;;13.30;10.60;;;;;;;;;;735115;186;921533;-59
2023/08/17 01:30:50;;;;;;;14.40;10.97;;;;;;;;;;742617;186;920476;-59
2023/08/17 01:33:18;;;;;;;14.23;10.90;;;;;;;;;;743439;187;919768;-65
2023/08/17 01:35:45;;;;;;;13.60;11.50;;;;;;;;;;743750;186;919054;-65
2023/08/17 01:38:10;;;;;;;19.90;11.80;;;;;;;;;;740760;188;919643;-64
2023/08/17 01:40:36;;;;;;;14.83;10.93;;;;;;;;;;739226;188;874812;-60
2023/08/17 01:43:02;;;;;;;12.63;11.33;;;;;;;;;;743468;186;919811;-63
2023/08/17 01:45:28;;;;;;;14.87;10.77;;;;;;;;;;739023;187;930336;-63
2023/08/17 01:47:53;;;;;;;11.47;10.27;;;;;;;;;;739029;185;920601;-63
2023/08/17 01:50:19;;;;;;;13.23;11.87;;;;;;;;;;746531;186;920935;-60
2023/08/17 01:52:45;;;;;;;12.30;10.40;;;;;;;;;;738303;186;918882;-63
2023/08/17 01:55:11;;;;;;;18.60;11.30;;;;;;;;;;737534;186;919304;-63
2023/08/17 01:57:37;;;;;;;13.37;9.93;;;;;;;;;;750535;186;919740;-63
2023/08/17 02:00:04;;;;;;;16.83;11.10;;;;;;;;;;740186;186;919754;-59
2023/08/17 02:02:29;;;;;;;13.67;11.47;;;;;;;;;;738781;186;918863;-59
2023/08/17 02:04:55;;;;;;;21.10;12.10;;;;;;;;;;741393;186;911564;-60
2023/08/17 02:07:21;;;;;;;16.97;11.00;;;;;;;;;;744470;186;912818;-58
2023/08/17 02:09:47;;;;;;;12.00;10.60;;;;;;;;;;739290;186;816967;-60
2023/08/17 02:12:12;;;;;;;33.30;10.40;;;;;;;;;;734360;190;916890;-60
2023/08/17 02:14:38;;;;;;;17.97;11.90;;;;;;;;;;741925;186;917607;-63
2023/08/17 02:17:05;;;;;;;10.87;9.70;;;;;;;;;;738148;184;917164;-60
2023/08/17 02:19:30;;;;;;;12.97;10.50;;;;;;;;;;741502;186;945150;-64
2023/08/17 02:21:56;;;;;;;14.90;11.77;;;;;;;;;;742125;186;918972;-63
2023/08/17 02:24:22;;;;;;;12.57;10.00;;;;;;;;;;740056;186;920416;-60
2023/08/17 02:26:47;;;;;;;12.73;10.57;;;;;;;;;;737118;188;919155;-64
2023/08/17 02:29:13;;;;;;;16.53;11.43;;;;;;;;;;741515;186;920300;-60
2023/08/17 02:31:39;;;;;;;12.53;10.77;;;;;;;;;;742480;188;918199;-59
2023/08/17 02:34:05;;;;;;;13.97;11.03;;;;;;;;;;736671;188;918319;-64
2023/08/17 02:36:31;;;;;;;16.03;12.17;;;;;;;;;;736368;188;919385;-58
2023/08/17 02:38:57;;;;;;;13.60;11.10;;;;;;;;;;742720;186;921762;-64
2023/08/17 02:41:22;;;;;;;16.33;11.67;;;;;;;;;;740173;186;919213;-63
2023/08/17 02:43:48;;;;;;;15.50;11.80;;;;;;;;;;735754;187;928907;-59
2023/08/17 02:46:15;;;;;;;13.50;11.47;;;;;;;;;;741958;186;915707;-63
2023/08/17 02:48:40;;;;;;;17.40;10.73;;;;;;;;;;738472;187;919821;-58
2023/08/17 02:51:06;;;;;;;12.57;11.10;;;;;;;;;;742807;186;918757;-60
2023/08/17 02:53:32;;;;;;;14.52;11.43;;;;;;;;;;740192;187;918023;-63
2023/08/17 02:55:58;;;;;;;14.50;11.63;;;;;;;;;;741299;186;922635;-64
2023/08/17 02:58:24;;;;;;;17.03;12.70;;;;;;;;;;735372;187;918978;-60
2023/08/17 03:00:51;;;;;;;15.87;11.33;;;;;;;;;;741363;184;919197;-64
2023/08/17 03:03:17;;;;;;;12.93;11.53;;;;;;;;;;741204;187;953302;-64
2023/08/17 03:05:42;;;;;;;13.60;12.20;;;;;;;;;;732800;186;918287;-63
2023/08/17 03:08:08;;;;;;;13.20;10.70;;;;;;;;;;741596;186;927877;-64
2023/08/17 03:10:34;;;;;;;14.73;10.87;;;;;;;;;;745355;186;920549;-60
2023/08/17 03:13:00;;;;;;;15.40;12.77;;;;;;;;;;743643;186;857349;-63
2023/08/17 03:15:26;;;;;;;17.17;13.00;;;;;;;;;;735703;189;916318;-63
2023/08/17 03:17:52;;;;;;;13.70;12.23;;;;;;;;;;741472;188;916927;-60
2023/08/17 03:20:17;;;;;;;13.50;12.10;;;;;;;;;;737661;186;914813;-59
2023/08/17 03:22:43;;;;;;;14.67;11.63;;;;;;;;;;733479;186;917112;-63
2023/08/17 03:25:09;;;;;;;15.33;12.40;;;;;;;;;;737336;186;917614;-61
2023/08/17 03:27:35;;;;;;;15.97;14.10;;;;;;;;;;746709;186;917659;-61
2023/08/17 03:30:01;;;;;;;14.03;12.60;;;;;;;;;;732239;189;919332;-59
2023/08/17 03:32:27;;;;;;;15.38;12.63;;;;;;;;;;740305;186;918962;-64
2023/08/17 03:34:52;;;;;;;18.10;13.30;;;;;;;;;;743206;186;917817;-61
2023/08/17 03:37:18;;;;;;;20.12;13.70;;;;;;;;;;737946;186;920424;-61
2023/08/17 03:39:44;;;;;;;16.07;13.27;;;;;;;;;;734553;189;931703;-59
2023/08/17 03:42:10;;;;;;;16.67;13.97;;;;;;;;;;737828;188;921552;-64
2023/08/17 03:44:36;;;;;;;20.90;13.40;;;;;;;;;;739060;186;919473;-63
2023/08/17 03:47:02;;;;;;;16.53;13.37;;;;;;;;;;737898;187;920775;-64
2023/08/17 03:49:28;;;;;;;18.43;13.17;;;;;;;;;;735386;189;919279;-64
2023/08/17 03:51:53;;;;;;;19.17;15.90;;;;;;;;;;736968;187;921023;-65
2023/08/17 03:54:19;;;;;;;14.97;12.57;;;;;;;;;;737936;186;922271;-64
2023/08/17 03:56:45;;;;;;;15.05;13.45;;;;;;;;;;739930;186;917261;-64
2023/08/17 03:59:11;;;;;;;16.77;15.00;;;;;;;;;;744711;187;816305;-59
2023/08/17 04:01:37;;;;;;;16.50;14.20;;;;;;;;;;735646;187;927010;-64
2023/08/17 04:04:03;;;;;;;15.83;13.43;;;;;;;;;;736831;186;925198;-64
2023/08/17 04:06:29;;;;;;;16.00;14.33;;;;;;;;;;745322;186;927494;-61
2023/08/17 04:08:55;;;;;;;20.23;13.60;;;;;;;;;;740178;186;919437;-61
2023/08/17 04:11:20;;;;;;;18.40;13.87;;;;;;;;;;739682;185;814356;-60
2023/08/17 04:13:47;;;;;;;16.90;15.10;;;;;;;;;;739966;186;918690;-64
2023/08/17 04:16:12;;;;;;;16.30;13.13;;;;;;;;;;742959;186;917428;-65
2023/08/17 04:18:38;;;;;;;17.03;15.23;;;;;;;;;;739805;186;918373;-61
2023/08/17 04:21:04;;;;;;;23.20;14.40;;;;;;;;;;744701;186;918150;-64
2023/08/17 04:23:30;;;;;;;16.23;14.53;;;;;;;;;;742111;188;919611;-60
2023/08/17 04:25:56;;;;;;;16.83;14.57;;;;;;;;;;742570;186;919259;-65
2023/08/17 04:28:22;;;;;;;17.47;14.70;;;;;;;;;;736107;188;919875;-65
2023/08/17 04:30:47;;;;;;;16.77;14.97;;;;;;;;;;748300;186;936329;-61
2023/08/17 04:33:13;;;;;;;17.90;16.00;;;;;;;;;;733833;186;920088;-60
2023/08/17 04:35:39;;;;;;;20.93;15.93;;;;;;;;;;735775;186;912265;-60
2023/08/17 04:38:05;;;;;;;17.30;14.53;;;;;;;;;;748845;186;630494;-64
2023/08/17 04:40:31;;;;;;;18.63;15.00;;;;;;;;;;733881;189;918887;-65
2023/08/17 04:42:57;;;;;;;15.30;13.57;;;;;;;;;;741675;186;920751;-64
2023/08/17 04:45:23;;;;;;;19.03;15.70;;;;;;;;;;745700;186;822405;-60
2023/08/17 04:47:49;;;;;;;15.73;14.10;;;;;;;;;;742376;186;914715;-64
2023/08/17 04:50:16;;;;;;;17.47;15.10;;;;;;;;;;739836;186;818465;-63
2023/08/17 04:52:40;;;;;;;16.43;14.73;;;;;;;;;;741635;186;924182;-60
2023/08/17 04:55:06;;;;;;;17.60;14.43;;;;;;;;;;739603;186;918560;-59
2023/08/17 04:57:32;;;;;;;20.47;15.47;;;;;;;;;;738244;187;920436;-61
2023/08/17 04:59:58;;;;;;;17.23;15.40;;;;;;;;;;732737;187;920365;-63
2023/08/17 05:02:24;;;;;;;22.43;14.80;;;;;;;;;;745418;186;918746;-60
2023/08/17 05:04:50;;;;;;;16.03;14.40;;;;;;;;;;736383;187;921175;-61
2023/08/17 05:07:16;;;;;;;16.90;14.47;;;;;;;;;;737021;186;919919;-63
2023/08/17 05:09:41;;;;;;;16.40;13.70;;;;;;;;;;730730;186;919944;-63
2023/08/17 05:12:08;;;;;;;16.00;14.30;;;;;;;;;;739155;186;816095;-63
2023/08/17 05:14:34;;;;;;;21.17;14.07;;;;;;;;;;733250;186;920612;-60
2023/08/17 05:16:59;;;;;;;14.80;13.30;;;;;;;;;;735918;187;918676;-59
2023/08/17 05:19:25;;;;;;;19.17;13.50;;;;;;;;;;743054;187;918456;-63
2023/08/17 05:21:51;;;;;;;20.63;14.13;;;;;;;;;;736840;186;920249;-61
2023/08/17 05:24:17;;;;;;;14.27;12.77;;;;;;;;;;744095;185;1000545;-64
2023/08/17 05:26:43;;;;;;;15.57;13.83;;;;;;;;;;742298;186;913192;-64
2023/08/17 05:29:09;;;;;;;18.60;14.10;;;;;;;;;;742597;186;918152;-63
2023/08/17 05:31:35;;;;;;;15.03;13.40;;;;;;;;;;743397;186;844808;-60
2023/08/17 05:34:01;;;;;;;15.38;13.88;;;;;;;;;;738595;186;940789;-61
2023/08/17 05:36:27;;;;;;;16.10;13.40;;;;;;;;;;737783;186;918998;-63
2023/08/17 05:38:53;;;;;;;15.10;12.30;;;;;;;;;;741312;186;919503;-65
2023/08/17 05:41:18;;;;;;;20.50;13.27;;;;;;;;;;742599;186;920949;-65
2023/08/17 05:43:44;;;;;;;14.30;12.80;;;;;;;;;;740041;186;918367;-61
2023/08/17 05:46:10;;;;;;;14.65;13.10;;;;;;;;;;741638;186;931519;-63
2023/08/17 05:48:36;;;;;;;15.88;12.85;;;;;;;;;;738170;184;1022592;-61
2023/08/17 05:51:02;;;;;;;15.80;13.27;;;;;;;;;;741826;186;919424;-60
2023/08/17 05:53:28;;;;;;;16.60;12.10;;;;;;;;;;741450;186;919972;-60
2023/08/17 05:55:54;;;;;;;15.47;12.60;;;;;;;;;;740673;186;920673;-60
2023/08/17 05:58:20;;;;;;;15.13;12.03;;;;;;;;;;741791;186;918775;-61
2023/08/17 06:00:45;;;;;;;14.87;13.10;;;;;;;;;;735749;187;918932;-65
2023/08/17 06:03:11;;;;;;;16.30;13.07;;;;;;;;;;745035;186;621161;-61
2023/08/17 06:05:37;;;;;;;14.27;12.77;;;;;;;;;;744908;186;716611;-64
2023/08/17 06:08:03;;;;;;;23.57;13.30;;;;;;;;;;742524;186;919076;-64
2023/08/17 06:10:29;;;;;;;13.87;12.37;;;;;;;;;;731367;186;921188;-61
2023/08/17 06:12:55;;;;;;;14.20;12.75;;;;;;;;;;738964;186;916694;-65
2023/08/17 06:15:21;;;;;;;16.37;12.67;;;;;;;;;;742872;186;916800;-62
2023/08/17 06:17:46;;;;;;;18.20;12.93;;;;;;;;;;737882;186;918420;-64
2023/08/17 06:20:13;;;;;;;16.07;12.53;;;;;;;;;;737579;187;920863;-64
2023/08/17 06:22:38;;;;;;;15.50;12.03;;;;;;;;;;742381;186;919775;-60
2023/08/17 06:25:05;;;;;;;13.70;11.47;;;;;;;;;;743160;186;920655;-61
2023/08/17 06:27:30;;;;;;;14.33;12.50;;;;;;;;;;740917;186;919201;-61
2023/08/17 06:29:56;;;;;;;14.10;12.60;;;;;;;;;;741400;186;822772;-62
2023/08/17 06:32:22;;;;;;;13.37;11.97;;;;;;;;;;738967;187;817163;-65
2023/08/17 06:34:48;;;;;;;13.83;12.40;;;;;;;;;;738473;189;919054;-65
2023/08/17 06:37:14;;;;;;;13.20;11.67;;;;;;;;;;738451;186;920588;-62
2023/08/17 06:39:40;;;;;;;13.70;12.10;;;;;;;;;;747387;186;919385;-61
2023/08/17 06:42:05;;;;;;;17.60;11.90;;;;;;;;;;738589;186;915354;-65
2023/08/17 06:44:31;;;;;;;15.52;11.35;;;;;;;;;;744276;186;919780;-59
2023/08/17 06:46:58;;;;;;;15.20;11.70;;;;;;;;;;742412;186;881968;-60
2023/08/17 06:49:23;;;;;;;13.63;12.23;;;;;;;;;;746015;186;912377;-60
2023/08/17 06:51:49;;;;;;;12.87;11.27;;;;;;;;;;736747;186;917664;-60
2023/08/17 06:54:15;;;;;;;14.00;12.53;;;;;;;;;;740588;186;917249;-64
2023/08/17 06:56:40;;;;;;;15.20;12.77;;;;;;;;;;738041;186;918468;-61
2023/08/17 06:59:06;;;;;;;13.67;11.37;;;;;;;;;;734859;186;918957;-60
2023/08/17 07:01:32;;;;;;;18.10;12.50;;;;;;;;;;743177;186;919102;-63
2023/08/17 07:03:58;;;;;;;14.27;12.63;;;;;;;;;;743866;186;914427;-63
2023/08/17 07:06:24;;;;;;;13.43;11.37;;;;;;;;;;744923;186;918156;-60
2023/08/17 07:08:50;;;;;;;18.57;12.37;;;;;;;;;;740282;186;633693;-60
2023/08/17 07:11:16;;;;;;;14.80;9.97;;;;;;;;;;745148;187;624326;-61
2023/08/17 07:13:41;;;;;;;13.50;10.50;;;;;;;;;;739403;187;632422;-61
2023/08/17 07:16:07;;;;;;;16.30;11.50;;;;;;;;;;741718;186;630174;-60
2023/08/17 07:18:33;;;;;;;16.33;10.50;;;;;;;;;;742740;186;615444;-60
2023/08/17 07:20:59;;;;;;;10.87;9.77;;;;;;;;;;732859;187;921172;-61
2023/08/17 07:23:25;;;;;;;14.10;11.27;;;;;;;;;;742691;186;918825;-61
2023/08/17 07:25:51;;;;;;;14.93;10.47;;;;;;;;;;739468;186;919121;-60
2023/08/17 07:28:16;;;;;;;13.67;12.00;;;;;;;;;;737295;189;633840;-60
2023/08/17 07:30:42;;;;;;;13.77;9.60;;;;;;;;;;745872;186;630773;-61
2023/08/17 07:33:08;;;;;;;11.63;10.43;;;;;;;;;;742859;187;635102;-61
2023/08/17 07:35:34;;;;;;;11.23;10.13;;;;;;;;;;747585;186;626254;-61
2023/08/17 07:38:00;;;;;;;13.20;11.80;;;;;;;;;;735809;186;909125;-62
2023/08/17 07:40:26;;;;;;;13.40;10.70;;;;;;;;;;739947;186;923382;-64
2023/08/17 07:42:52;;;;;;;11.70;10.50;;;;;;;;;;740677;186;919311;-60
2023/08/17 07:45:17;;;;;;;11.73;10.43;;;;;;;;;;737734;187;920581;-62
2023/08/17 07:47:43;;;;;;;12.13;10.40;;;;;;;;;;738213;186;921763;-64
2023/08/17 07:50:10;;;;;;;15.27;11.65;;;;;;;;;;739118;186;818756;-61
2023/08/17 07:52:35;;;;;;;16.43;11.77;;;;;;;;;;742596;186;918942;-65
2023/08/17 07:55:01;;;;;;;11.93;10.10;;;;;;;;;;735314;186;920642;-65
2023/08/17 07:57:27;;;;;;;17.57;12.43;;;;;;;;;;743102;186;916802;-60
2023/08/17 07:59:53;;;;;;;12.83;11.27;;;;;;;;;;744271;186;818353;-64
2023/08/17 08:02:19;;;;;;;11.70;10.27;;;;;;;;;;738953;186;815738;-65
2023/08/17 08:04:45;;;;;;;11.80;10.15;;;;;;;;;;744896;186;919013;-63
2023/08/17 08:07:11;;;;;;;14.00;10.90;;;;;;;;;;748039;186;817538;-61
2023/08/17 08:09:36;;;;;;;12.90;10.67;;;;;;;;;;741522;186;623822;-61
2023/08/17 08:12:02;;;;;;;13.20;10.87;;;;;;;;;;743609;186;629248;-65
2023/08/17 08:14:29;;;;;;;12.13;10.87;;;;;;;;;;744380;186;820100;-60
2023/08/17 08:16:54;;;;;;;11.83;10.30;;;;;;;;;;738592;186;921561;-63
2023/08/17 08:19:20;;;;;;;13.33;11.93;;;;;;;;;;738577;186;622502;-64
2023/08/17 08:21:46;;;;;;;15.00;12.47;;;;;;;;;;748326;186;621265;-61
2023/08/17 08:24:12;;;;;;;12.90;11.60;;;;;;;;;;744587;187;624616;-63
2023/08/17 08:26:37;;;;;;;15.23;11.70;;;;;;;;;;737227;186;917698;-61
2023/08/17 08:29:04;;;;;;;14.30;11.67;;;;;;;;;;740339;186;918675;-60
2023/08/17 08:31:29;;;;;;;13.07;11.17;;;;;;;;;;743948;186;920882;-64
2023/08/17 08:33:55;;;;;;;12.13;10.83;;;;;;;;;;741796;186;918373;-61
2023/08/17 08:36:21;;;;;;;16.30;12.47;;;;;;;;;;737508;186;921003;-64
2023/08/17 08:38:47;;;;;;;16.63;13.33;;;;;;;;;;746094;186;919511;-61
2023/08/17 08:41:13;;;;;;;15.80;12.57;;;;;;;;;;734628;186;823137;-61
2023/08/17 08:43:38;;;;;;;13.83;11.57;;;;;;;;;;731300;186;895302;-60
2023/08/17 08:46:04;;;;;;;14.43;11.33;;;;;;;;;;729929;187;915943;-64
2023/08/17 08:48:30;;;;;;;14.60;12.30;;;;;;;;;;738982;187;916198;-64
2023/08/17 08:50:56;;;;;;;14.40;12.90;;;;;;;;;;742745;186;922292;-65
2023/08/17 08:53:23;;;;;;;14.70;11.95;;;;;;;;;;733742;186;920708;-62
2023/08/17 08:55:48;;;;;;;16.77;13.03;;;;;;;;;;745987;187;919317;-64
2023/08/17 08:58:15;;;;;;;14.80;13.10;;;;;;;;;;740141;186;919306;-61
2023/08/17 09:00:41;;;;;;;14.70;12.43;;;;;;;;;;744783;186;919776;-64
2023/08/17 09:03:07;;;;;;;13.90;12.50;;;;;;;;;;737787;186;918344;-61
2023/08/17 09:05:34;;;;;;;16.67;12.63;;;;;;;;;;733554;186;921351;-60
2023/08/17 09:07:59;;;;;;;18.63;13.53;;;;;;;;;;737848;186;916109;-60
2023/08/17 09:10:24;;;;;;;16.30;12.93;;;;;;;;;;735052;186;919621;-65
2023/08/17 09:12:50;;;;;;;16.07;14.50;;;;;;;;;;742125;186;919424;-65
2023/08/17 09:15:16;;;;;;;21.97;16.00;;;;;;;;;;737799;186;812951;-66
2023/08/17 09:17:42;;;;;;;20.70;16.90;;;;;;;;;;742212;186;817115;-60
2023/08/17 09:20:08;;;;;;;16.47;14.87;;;;;;;;;;753864;186;816620;-60
2023/08/17 09:22:39;;;;;;;16.30;14.70;;;;;;;;;;740368;186;826621;-64
2023/08/17 09:25:04;;;;;;;16.40;14.70;;;;;;;;;;741443;186;919109;-60
2023/08/17 09:27:30;;;;;;;19.60;14.93;;;;;;;;;;744493;186;820572;-65
2023/08/17 09:30:01;;;;;;;26.03;20.93;;;;;;;;;;742498;186;920358;-59
2023/08/17 09:32:27;;;;;;;16.23;14.30;;;;;;;;;;748849;186;919932;-64
2023/08/17 09:34:53;;;;;;;18.60;16.70;;;;;;;;;;742259;186;917650;-60
2023/08/17 09:37:19;;;;;;;16.80;15.00;;;;;;;;;;735550;186;923674;-64
2023/08/17 09:39:44;;;;;;;16.40;14.73;;;;;;;;;;744693;186;914600;-65
2023/08/17 09:42:10;;;;;;;34.17;20.17;;;;;;;;;;741202;186;916861;-59
2023/08/17 09:44:36;;;;;;;68.80;51.03;;;;;;;;;;736180;186;919851;-61
2023/08/17 09:47:02;;;;;;;43.17;38.27;;;;;;;;;;742609;186;918445;-60
2023/08/17 09:49:28;;;;;;;18.97;16.77;;;;;;;;;;736884;186;916286;-65
2023/08/17 09:51:54;;;;;;;24.00;17.60;;;;;;;;;;740585;186;820311;-64
2023/08/17 09:54:23;;;;;;;20.07;17.00;;;;;;;;;;750947;185;814851;-60
2023/08/17 09:56:48;;;;;;;16.77;14.87;;;;;;;;;;739487;186;819992;-64
2023/08/17 09:59:14;;;;;;;18.90;16.77;;;;;;;;;;740907;186;915434;-64
2023/08/17 10:01:39;;;;;;;16.80;15.10;;;;;;;;;;751072;186;918224;-65
2023/08/17 10:04:05;;;;;;;23.53;14.03;;;;;;;;;;737013;184;911817;-61
2023/08/17 10:06:31;;;;;;;15.63;14.03;;;;;;;;;;739538;187;913414;-64
2023/08/17 10:08:58;;;;;;;14.63;13.17;;;;;;;;;;746441;186;914275;-60
2023/08/17 10:11:24;;;;;;;14.83;13.33;;;;;;;;;;742664;186;918448;-60
2023/08/17 10:13:51;;;;;;;15.00;13.50;;;;;;;;;;744895;186;918700;-60
2023/08/17 10:16:18;;;;;;;13.40;12.20;;;;;;;;;;736331;186;915788;-60
2023/08/17 10:18:46;;;;;;;15.13;13.33;;;;;;;;;;745506;186;925399;-60
2023/08/17 10:21:11;;;;;;;15.50;13.87;;;;;;;;;;739308;188;918504;-60
2023/08/17 10:23:37;;;;;;;12.97;11.73;;;;;;;;;;739538;186;918336;-60
2023/08/17 10:26:03;;;;;;;13.13;11.80;;;;;;;;;;738343;186;911900;-65
2023/08/17 10:28:29;;;;;;;13.57;12.27;;;;;;;;;;741259;186;919347;-64
2023/08/17 10:30:55;;;;;;;14.80;11.77;;;;;;;;;;744600;186;919592;-60
2023/08/17 10:33:21;;;;;;;15.10;12.20;;;;;;;;;;745703;186;919418;-65
2023/08/17 10:35:47;;;;;;;17.70;12.00;;;;;;;;;;734109;186;899637;-64
2023/08/17 10:38:13;;;;;;;13.70;12.20;;;;;;;;;;739992;186;919491;-65
2023/08/17 10:40:39;;;;;;;15.03;13.17;;;;;;;;;;738545;186;919173;-59
2023/08/17 10:43:05;;;;;;;15.13;13.53;;;;;;;;;;749717;186;817652;-66
2023/08/17 10:45:31;;;;;;;12.57;11.30;;;;;;;;;;734938;186;875221;-64
2023/08/17 10:48:01;;;;;;;14.53;12.77;;;;;;;;;;735120;187;918279;-65
2023/08/17 10:50:27;;;;;;;14.73;11.63;;;;;;;;;;739842;186;821420;-59
2023/08/17 10:52:52;;;;;;;19.47;17.40;;;;;;;;;;729715;184;922038;-64
2023/08/17 10:55:20;;;;;;;16.83;12.50;;;;;;;;;;737692;186;918875;-64
2023/08/17 10:57:44;;;;;;;12.57;11.10;;;;;;;;;;741090;187;916855;-65
2023/08/17 11:00:15;;;;;;;15.83;12.00;;;;;;;;;;741353;187;919771;-63
2023/08/17 11:02:40;;;;;;;11.97;10.53;;;;;;;;;;737418;186;919077;-63
2023/08/17 11:05:07;;;;;;;13.37;11.70;;;;;;;;;;739294;186;915360;-63
2023/08/17 11:07:38;;;;;;;14.63;10.90;;;;;;;;;;741883;186;886645;-64
2023/08/17 11:10:04;;;;;;;11.87;10.70;;;;;;;;;;743331;186;875031;-59
2023/08/17 11:12:30;;;;;;;12.70;9.77;;;;;;;;;;737945;186;918675;-64
2023/08/17 11:14:56;;;;;;;11.53;9.10;;;;;;;;;;737792;186;918597;-59
2023/08/17 11:17:21;;;;;;;18.80;10.10;;;;;;;;;;742763;186;819864;-59
2023/08/17 11:19:50;;;;;;;11.03;9.83;;;;;;;;;;739761;186;918288;-59
2023/08/17 11:22:13;;;;;;;12.50;11.30;;;;;;;;;;745177;185;631983;-63
2023/08/17 11:24:40;;;;;;;12.57;10.30;;;;;;;;;;746966;186;628979;-65
2023/08/17 11:27:05;;;;;;;11.80;10.47;;;;;;;;;;739597;186;919254;-64
2023/08/17 11:29:31;;;;;;;11.40;10.20;;;;;;;;;;742417;186;737804;-65
2023/08/17 11:31:56;;;;;;;12.33;10.00;;;;;;;;;;743347;186;918810;-64
2023/08/17 11:34:22;;;;;;;10.37;9.30;;;;;;;;;;749271;186;616780;-60
2023/08/17 11:36:48;;;;;;;13.60;11.00;;;;;;;;;;738156;186;624321;-65
2023/08/17 11:39:14;;;;;;;14.33;10.40;;;;;;;;;;744348;188;627814;-60
2023/08/17 11:41:40;;;;;;;10.77;9.60;;;;;;;;;;746291;186;619019;-65
2023/08/17 11:44:06;;;;;;;11.70;9.83;;;;;;;;;;741825;186;615459;-60
2023/08/17 11:46:31;;;;;;;10.07;8.93;;;;;;;;;;740630;186;629146;-65
2023/08/17 11:48:57;;;;;;;8.10;7.23;;;;;;;;;;751406;186;615106;-61
2023/08/17 11:51:29;;;;;;;12.93;8.60;;;;;;;;;;747319;186;619068;-60
2023/08/17 11:53:54;;;;;;;8.90;7.00;;;;;;;;;;741681;186;639199;-65
2023/08/17 11:56:20;;;;;;;10.90;7.07;;;;;;;;;;741249;188;629084;-60
2023/08/17 11:58:45;;;;;;;9.43;7.10;;;;;;;;;;742439;186;624335;-65
2023/08/17 12:01:11;;;;;;;8.50;6.50;;;;;;;;;;736533;186;817928;-58
2023/08/17 12:03:37;;;;;;;9.87;7.50;;;;;;;;;;740986;186;919182;-59
2023/08/17 12:06:03;;;;;;;10.33;8.30;;;;;;;;;;743069;187;816086;-65
2023/08/17 12:08:29;;;;;;;8.93;5.97;;;;;;;;;;738865;186;816944;-65
2023/08/17 12:10:55;;;;;;;19.77;4.00;;;;;;;;;;734081;186;919421;-65
2023/08/17 12:13:21;;;;;;;7.60;4.07;;;;;;;;;;746756;186;918917;-58
2023/08/17 12:15:46;;;;;;;6.03;4.17;;;;;;;;;;737987;186;917265;-64
2023/08/17 12:18:12;;;;;;;4.73;3.50;;;;;;;;;;741462;186;919288;-59
2023/08/17 12:20:38;;;;;;;5.50;3.30;;;;;;;;;;741935;187;919741;-61
2023/08/17 12:23:04;;;;;;;6.07;3.87;;;;;;;;;;734590;187;920011;-63
2023/08/17 12:25:30;;;;;;;15.67;5.30;;;;;;;;;;734695;187;919186;-61
2023/08/17 12:27:56;;;;;;;8.90;5.07;;;;;;;;;;741696;186;916790;-66
2023/08/17 12:30:24;;;;;;;7.37;4.97;;;;;;;;;;741657;187;816171;-62
2023/08/17 12:32:50;;;;;;;9.90;5.13;;;;;;;;;;741247;186;916714;-69
2023/08/17 12:35:16;;;;;;;6.90;4.80;;;;;;;;;;741748;186;817211;-64
2023/08/17 12:37:42;;;;;;;8.83;5.27;;;;;;;;;;744033;186;816754;-66
2023/08/17 12:40:09;;;;;;;6.20;4.60;;;;;;;;;;736746;186;914422;-65
2023/08/17 12:42:34;;;;;;;5.80;3.90;;;;;;;;;;737218;186;916624;-65
2023/08/17 12:45:01;;;;;;;5.43;3.78;;;;;;;;;;741994;186;918914;-64
2023/08/17 12:47:26;;;;;;;8.40;3.70;;;;;;;;;;745236;186;919212;-66
2023/08/17 12:49:53;;;;;;;6.30;3.20;;;;;;;;;;739282;186;919606;-62
2023/08/17 12:52:18;;;;;;;5.60;3.87;;;;;;;;;;740073;186;918217;-67
2023/08/17 12:54:44;;;;;;;5.60;3.70;;;;;;;;;;744657;186;816632;-62
2023/08/17 12:57:10;;;;;;;6.07;3.00;;;;;;;;;;740123;186;918339;-63
2023/08/17 12:59:36;;;;;;;7.23;3.57;;;;;;;;;;739001;186;918514;-66
2023/08/17 13:02:01;;;;;;;4.23;3.30;;;;;;;;;;743757;186;917625;-63
2023/08/17 13:04:27;;;;;;;5.07;3.30;;;;;;;;;;740148;186;917186;-65
2023/08/17 13:06:55;;;;;;;7.23;2.90;;;;;;;;;;742641;186;816551;-64
2023/08/17 13:09:19;;;;;;;8.73;2.90;;;;;;;;;;743055;186;918753;-67
2023/08/17 13:11:45;;;;;;;5.30;3.30;;;;;;;;;;731528;187;915928;-65
2023/08/17 13:14:11;;;;;;;4.77;2.73;;;;;;;;;;741642;186;915367;-67
2023/08/17 13:16:37;;;;;;;7.43;3.30;;;;;;;;;;733032;187;921802;-67
2023/08/17 13:19:02;;;;;;;4.80;2.70;;;;;;;;;;740173;187;918479;-64
2023/08/17 13:21:28;;;;;;;4.40;2.70;;;;;;;;;;741780;186;921641;-66
2023/08/17 13:23:55;;;;;;;6.20;2.77;;;;;;;;;;733495;186;919272;-66
2023/08/17 13:26:20;;;;;;;5.43;3.10;;;;;;;;;;747328;187;816490;-63
2023/08/17 13:28:46;;;;;;;4.30;2.80;;;;;;;;;;735546;186;922817;-61
2023/08/17 13:31:12;;;;;;;5.70;3.40;;;;;;;;;;740789;186;891499;-63
2023/08/17 13:33:38;;;;;;;8.00;3.10;;;;;;;;;;740120;186;839898;-66
2023/08/17 13:36:04;;;;;;;7.87;3.90;;;;;;;;;;740291;187;919545;-66
2023/08/17 13:38:29;;;;;;;4.00;3.07;;;;;;;;;;741330;186;923573;-65
2023/08/17 13:40:55;;;;;;;5.93;2.80;;;;;;;;;;740504;186;913825;-62
2023/08/17 13:43:21;;;;;;;7.80;3.07;;;;;;;;;;740471;184;918805;-65
2023/08/17 13:45:47;;;;;;;4.20;2.60;;;;;;;;;;746710;186;919344;-62
2023/08/17 13:48:13;;;;;;;5.60;2.70;;;;;;;;;;748397;186;814211;-63
2023/08/17 13:50:39;;;;;;;4.13;2.80;;;;;;;;;;747702;186;819405;-66
2023/08/17 13:53:04;;;;;;;4.97;2.97;;;;;;;;;;739549;186;919421;-63
2023/08/17 13:55:30;;;;;;;4.50;2.73;;;;;;;;;;739519;186;912834;-64
2023/08/17 13:57:56;;;;;;;6.30;2.87;;;;;;;;;;750000;186;919003;-63
2023/08/17 14:00:22;;;;;;;5.57;2.57;;;;;;;;;;739003;186;907941;-60